sensor_id;sensor_type;location;lat;lon;timestamp;P1;durP1;ratioP1;P2;durP2;ratioP2
79706;SDS011;69200;53.612;-2.416;2024-03-02T00:01:52;5.38;;;1.90;;
79706;SDS011;69200;53.612;-2.416;2024-03-02T00:04:18;5.82;;;2.50;;
79706;SDS011;69200;53.612;-2.416;2024-03-02T00:06:43;9.17;;;4.57;;
79706;SDS011;69200;53.612;-2.416;2024-03-02T00:09:08;5.83;;;2.70;;
79706;SDS011;69200;53.612;-2.416;2024-03-02T00:11:34;10.30;;;4.10;;
79706;SDS011;69200;53.612;-2.416;2024-03-02T00:14:01;7.80;;;3.38;;
79706;SDS011;69200;53.612;-2.416;2024-03-02T00:16:29;8.00;;;3.10;;
79706;SDS011;69200;53.612;-2.416;2024-03-02T00:18:55;7.75;;;2.97;;
79706;SDS011;69200;53.612;-2.416;2024-03-02T00:21:20;5.87;;;2.20;;
79706;SDS011;69200;53.612;-2.416;2024-03-02T00:23:47;7.20;;;2.55;;
79706;SDS011;69200;53.612;-2.416;2024-03-02T00:26:13;6.18;;;1.90;;
79706;SDS011;69200;53.612;-2.416;2024-03-02T00:28:40;6.40;;;2.20;;
79706;SDS011;69200;53.612;-2.416;2024-03-02T00:31:09;4.30;;;1.43;;
79706;SDS011;69200;53.612;-2.416;2024-03-02T00:33:37;6.50;;;1.63;;
79706;SDS011;69200;53.612;-2.416;2024-03-02T00:36:05;5.97;;;2.28;;
79706;SDS011;69200;53.612;-2.416;2024-03-02T00:38:32;8.43;;;4.35;;
79706;SDS011;69200;53.612;-2.416;2024-03-02T00:41:04;6.63;;;3.00;;
79706;SDS011;69200;53.612;-2.416;2024-03-02T00:46:04;10.88;;;4.10;;
79706;SDS011;69200;53.612;-2.416;2024-03-02T00:48:29;6.47;;;2.13;;
79706;SDS011;69200;53.612;-2.416;2024-03-02T00:50:56;5.88;;;1.77;;
79706;SDS011;69200;53.612;-2.416;2024-03-02T00:53:22;11.52;;;4.90;;
79706;SDS011;69200;53.612;-2.416;2024-03-02T00:55:49;10.95;;;5.65;;
79706;SDS011;69200;53.612;-2.416;2024-03-02T00:58:14;5.93;;;1.90;;
79706;SDS011;69200;53.612;-2.416;2024-03-02T01:00:40;4.47;;;2.13;;
79706;SDS011;69200;53.612;-2.416;2024-03-02T01:03:05;5.03;;;2.03;;
79706;SDS011;69200;53.612;-2.416;2024-03-02T01:05:30;6.10;;;2.30;;
79706;SDS011;69200;53.612;-2.416;2024-03-02T01:07:55;7.18;;;2.58;;
79706;SDS011;69200;53.612;-2.416;2024-03-02T01:10:21;9.90;;;1.80;;
79706;SDS011;69200;53.612;-2.416;2024-03-02T01:12:46;5.30;;;1.63;;
79706;SDS011;69200;53.612;-2.416;2024-03-02T01:15:11;8.57;;;2.87;;
79706;SDS011;69200;53.612;-2.416;2024-03-02T01:17:36;4.93;;;1.90;;
79706;SDS011;69200;53.612;-2.416;2024-03-02T01:20:02;6.07;;;2.40;;
79706;SDS011;69200;53.612;-2.416;2024-03-02T01:22:27;5.85;;;1.95;;
79706;SDS011;69200;53.612;-2.416;2024-03-02T01:24:52;7.97;;;2.60;;
79706;SDS011;69200;53.612;-2.416;2024-03-02T01:27:17;6.63;;;3.00;;
79706;SDS011;69200;53.612;-2.416;2024-03-02T01:29:43;7.15;;;2.88;;
79706;SDS011;69200;53.612;-2.416;2024-03-02T01:32:09;6.67;;;2.40;;
79706;SDS011;69200;53.612;-2.416;2024-03-02T01:34:34;7.20;;;2.73;;
79706;SDS011;69200;53.612;-2.416;2024-03-02T01:36:59;6.60;;;2.13;;
79706;SDS011;69200;53.612;-2.416;2024-03-02T01:39:24;6.30;;;2.10;;
79706;SDS011;69200;53.612;-2.416;2024-03-02T01:41:49;5.03;;;2.00;;
79706;SDS011;69200;53.612;-2.416;2024-03-02T01:44:15;6.40;;;2.47;;
79706;SDS011;69200;53.612;-2.416;2024-03-02T01:46:40;5.22;;;2.13;;
79706;SDS011;69200;53.612;-2.416;2024-03-02T01:49:05;6.13;;;2.57;;
79706;SDS011;69200;53.612;-2.416;2024-03-02T01:51:31;6.00;;;2.55;;
79706;SDS011;69200;53.612;-2.416;2024-03-02T01:53:56;9.32;;;2.90;;
79706;SDS011;69200;53.612;-2.416;2024-03-02T01:56:22;7.60;;;2.30;;
79706;SDS011;69200;53.612;-2.416;2024-03-02T01:58:47;10.47;;;3.83;;
79706;SDS011;69200;53.612;-2.416;2024-03-02T02:01:12;7.57;;;2.60;;
79706;SDS011;69200;53.612;-2.416;2024-03-02T02:03:37;8.47;;;3.47;;
79706;SDS011;69200;53.612;-2.416;2024-03-02T02:06:03;5.87;;;2.60;;
79706;SDS011;69200;53.612;-2.416;2024-03-02T02:08:28;6.00;;;2.55;;
79706;SDS011;69200;53.612;-2.416;2024-03-02T02:10:53;6.77;;;2.50;;
79706;SDS011;69200;53.612;-2.416;2024-03-02T02:13:18;7.68;;;3.05;;
79706;SDS011;69200;53.612;-2.416;2024-03-02T02:15:44;8.83;;;2.60;;
79706;SDS011;69200;53.612;-2.416;2024-03-02T02:18:09;124.10;;;68.27;;
79706;SDS011;69200;53.612;-2.416;2024-03-02T02:20:34;8.38;;;3.88;;
79706;SDS011;69200;53.612;-2.416;2024-03-02T02:23:00;5.57;;;2.67;;
79706;SDS011;69200;53.612;-2.416;2024-03-02T02:25:26;7.25;;;2.95;;
79706;SDS011;69200;53.612;-2.416;2024-03-02T02:27:52;7.10;;;3.15;;
79706;SDS011;69200;53.612;-2.416;2024-03-02T02:30:27;8.05;;;3.03;;
79706;SDS011;69200;53.612;-2.416;2024-03-02T02:32:53;7.95;;;2.55;;
79706;SDS011;69200;53.612;-2.416;2024-03-02T02:35:18;7.85;;;2.72;;
79706;SDS011;69200;53.612;-2.416;2024-03-02T02:37:44;7.90;;;2.83;;
79706;SDS011;69200;53.612;-2.416;2024-03-02T02:40:10;6.25;;;2.28;;
79706;SDS011;69200;53.612;-2.416;2024-03-02T02:42:35;6.57;;;2.28;;
79706;SDS011;69200;53.612;-2.416;2024-03-02T02:45:01;6.30;;;2.50;;
79706;SDS011;69200;53.612;-2.416;2024-03-02T02:47:26;17.40;;;6.87;;
79706;SDS011;69200;53.612;-2.416;2024-03-02T02:49:51;8.03;;;2.63;;
79706;SDS011;69200;53.612;-2.416;2024-03-02T02:52:16;6.07;;;2.57;;
79706;SDS011;69200;53.612;-2.416;2024-03-02T02:54:42;5.95;;;2.42;;
79706;SDS011;69200;53.612;-2.416;2024-03-02T02:57:07;5.40;;;2.10;;
79706;SDS011;69200;53.612;-2.416;2024-03-02T02:59:33;8.63;;;2.87;;
79706;SDS011;69200;53.612;-2.416;2024-03-02T03:02:00;5.03;;;1.65;;
79706;SDS011;69200;53.612;-2.416;2024-03-02T03:04:25;6.23;;;2.43;;
79706;SDS011;69200;53.612;-2.416;2024-03-02T03:06:50;9.30;;;2.33;;
79706;SDS011;69200;53.612;-2.416;2024-03-02T03:09:16;7.73;;;2.77;;
79706;SDS011;69200;53.612;-2.416;2024-03-02T03:11:41;7.00;;;2.13;;
79706;SDS011;69200;53.612;-2.416;2024-03-02T03:14:06;6.90;;;2.13;;
79706;SDS011;69200;53.612;-2.416;2024-03-02T03:16:31;6.43;;;2.10;;
79706;SDS011;69200;53.612;-2.416;2024-03-02T03:18:57;7.13;;;2.10;;
79706;SDS011;69200;53.612;-2.416;2024-03-02T03:21:22;5.13;;;2.53;;
79706;SDS011;69200;53.612;-2.416;2024-03-02T03:23:47;4.87;;;1.50;;
79706;SDS011;69200;53.612;-2.416;2024-03-02T03:26:12;4.93;;;2.13;;
79706;SDS011;69200;53.612;-2.416;2024-03-02T03:28:38;136.20;;;74.85;;
79706;SDS011;69200;53.612;-2.416;2024-03-02T03:31:03;126.78;;;68.25;;
79706;SDS011;69200;53.612;-2.416;2024-03-02T03:33:29;174.67;;;93.97;;
79706;SDS011;69200;53.612;-2.416;2024-03-02T03:35:54;172.70;;;94.00;;
79706;SDS011;69200;53.612;-2.416;2024-03-02T03:38:19;183.93;;;101.17;;
79706;SDS011;69200;53.612;-2.416;2024-03-02T03:40:44;155.57;;;85.90;;
79706;SDS011;69200;53.612;-2.416;2024-03-02T03:43:10;109.30;;;62.00;;
79706;SDS011;69200;53.612;-2.416;2024-03-02T03:45:35;103.60;;;59.80;;
79706;SDS011;69200;53.612;-2.416;2024-03-02T03:48:01;102.60;;;59.37;;
79706;SDS011;69200;53.612;-2.416;2024-03-02T03:50:26;107.85;;;60.33;;
79706;SDS011;69200;53.612;-2.416;2024-03-02T03:52:51;112.93;;;63.53;;
79706;SDS011;69200;53.612;-2.416;2024-03-02T03:55:17;142.93;;;76.53;;
79706;SDS011;69200;53.612;-2.416;2024-03-02T03:57:42;164.33;;;86.63;;
79706;SDS011;69200;53.612;-2.416;2024-03-02T04:00:07;193.43;;;102.17;;
79706;SDS011;69200;53.612;-2.416;2024-03-02T04:02:35;213.68;;;111.78;;
79706;SDS011;69200;53.612;-2.416;2024-03-02T04:05:00;210.50;;;110.23;;
79706;SDS011;69200;53.612;-2.416;2024-03-02T04:07:25;179.30;;;97.67;;
79706;SDS011;69200;53.612;-2.416;2024-03-02T04:09:50;202.80;;;111.23;;
79706;SDS011;69200;53.612;-2.416;2024-03-02T04:12:16;371.63;;;221.00;;
79706;SDS011;69200;53.612;-2.416;2024-03-02T04:14:41;392.53;;;236.17;;
79706;SDS011;69200;53.612;-2.416;2024-03-02T04:17:07;416.77;;;254.95;;
79706;SDS011;69200;53.612;-2.416;2024-03-02T04:19:32;437.73;;;267.43;;
79706;SDS011;69200;53.612;-2.416;2024-03-02T04:21:57;422.20;;;258.70;;
79706;SDS011;69200;53.612;-2.416;2024-03-02T04:24:23;313.17;;;179.07;;
79706;SDS011;69200;53.612;-2.416;2024-03-02T04:26:48;248.23;;;140.40;;
79706;SDS011;69200;53.612;-2.416;2024-03-02T04:29:13;238.03;;;128.33;;
79706;SDS011;69200;53.612;-2.416;2024-03-02T04:31:38;233.67;;;128.93;;
79706;SDS011;69200;53.612;-2.416;2024-03-02T04:34:04;236.43;;;130.03;;
79706;SDS011;69200;53.612;-2.416;2024-03-02T04:36:29;250.57;;;137.80;;
79706;SDS011;69200;53.612;-2.416;2024-03-02T04:38:54;252.60;;;141.00;;
79706;SDS011;69200;53.612;-2.416;2024-03-02T04:41:20;239.03;;;134.40;;
79706;SDS011;69200;53.612;-2.416;2024-03-02T04:43:45;245.70;;;136.90;;
79706;SDS011;69200;53.612;-2.416;2024-03-02T04:46:10;212.93;;;118.73;;
79706;SDS011;69200;53.612;-2.416;2024-03-02T04:48:35;241.50;;;134.35;;
79706;SDS011;69200;53.612;-2.416;2024-03-02T04:51:01;238.75;;;130.80;;
79706;SDS011;69200;53.612;-2.416;2024-03-02T04:53:26;224.67;;;123.67;;
79706;SDS011;69200;53.612;-2.416;2024-03-02T04:55:51;251.63;;;142.50;;
79706;SDS011;69200;53.612;-2.416;2024-03-02T04:58:52;248.35;;;146.98;;
79706;SDS011;69200;53.612;-2.416;2024-03-02T05:01:18;236.27;;;137.90;;
79706;SDS011;69200;53.612;-2.416;2024-03-02T05:03:43;218.33;;;123.77;;
79706;SDS011;69200;53.612;-2.416;2024-03-02T05:06:08;241.97;;;136.57;;
79706;SDS011;69200;53.612;-2.416;2024-03-02T05:08:34;232.77;;;130.67;;
79706;SDS011;69200;53.612;-2.416;2024-03-02T05:10:59;232.00;;;126.47;;
79706;SDS011;69200;53.612;-2.416;2024-03-02T05:13:45;228.50;;;125.63;;
79706;SDS011;69200;53.612;-2.416;2024-03-02T05:16:10;228.90;;;126.50;;
79706;SDS011;69200;53.612;-2.416;2024-03-02T05:18:37;220.90;;;122.43;;
79706;SDS011;69200;53.612;-2.416;2024-03-02T05:21:03;184.75;;;103.88;;
79706;SDS011;69200;53.612;-2.416;2024-03-02T05:23:28;159.90;;;87.43;;
79706;SDS011;69200;53.612;-2.416;2024-03-02T05:25:53;149.30;;;84.32;;
79706;SDS011;69200;53.612;-2.416;2024-03-02T05:28:19;147.27;;;82.70;;
79706;SDS011;69200;53.612;-2.416;2024-03-02T05:30:44;154.63;;;87.67;;
79706;SDS011;69200;53.612;-2.416;2024-03-02T05:33:09;161.07;;;89.30;;
79706;SDS011;69200;53.612;-2.416;2024-03-02T05:35:34;162.47;;;90.40;;
79706;SDS011;69200;53.612;-2.416;2024-03-02T05:38:00;163.70;;;91.73;;
79706;SDS011;69200;53.612;-2.416;2024-03-02T05:40:25;147.37;;;84.53;;
79706;SDS011;69200;53.612;-2.416;2024-03-02T05:42:50;160.47;;;89.80;;
79706;SDS011;69200;53.612;-2.416;2024-03-02T05:45:15;170.00;;;95.60;;
79706;SDS011;69200;53.612;-2.416;2024-03-02T05:47:41;159.77;;;92.30;;
79706;SDS011;69200;53.612;-2.416;2024-03-02T05:50:07;190.40;;;106.43;;
79706;SDS011;69200;53.612;-2.416;2024-03-02T05:52:32;189.38;;;106.10;;
79706;SDS011;69200;53.612;-2.416;2024-03-02T05:54:57;237.13;;;130.47;;
79706;SDS011;69200;53.612;-2.416;2024-03-02T05:57:22;253.57;;;142.20;;
79706;SDS011;69200;53.612;-2.416;2024-03-02T06:00:10;251.30;;;143.75;;
79706;SDS011;69200;53.612;-2.416;2024-03-02T06:02:38;249.95;;;140.18;;
79706;SDS011;69200;53.612;-2.416;2024-03-02T06:05:04;245.43;;;140.05;;
79706;SDS011;69200;53.612;-2.416;2024-03-02T06:07:30;255.65;;;142.68;;
79706;SDS011;69200;53.612;-2.416;2024-03-02T06:09:55;256.13;;;144.30;;
79706;SDS011;69200;53.612;-2.416;2024-03-02T06:12:20;258.43;;;147.13;;
79706;SDS011;69200;53.612;-2.416;2024-03-02T06:14:45;239.70;;;134.90;;
79706;SDS011;69200;53.612;-2.416;2024-03-02T06:17:11;249.97;;;140.43;;
79706;SDS011;69200;53.612;-2.416;2024-03-02T06:19:36;248.83;;;139.63;;
79706;SDS011;69200;53.612;-2.416;2024-03-02T06:22:01;258.13;;;141.30;;
79706;SDS011;69200;53.612;-2.416;2024-03-02T06:24:26;258.53;;;143.30;;
79706;SDS011;69200;53.612;-2.416;2024-03-02T06:26:52;266.43;;;147.33;;
79706;SDS011;69200;53.612;-2.416;2024-03-02T06:29:17;267.40;;;148.57;;
79706;SDS011;69200;53.612;-2.416;2024-03-02T06:31:42;269.17;;;147.93;;
79706;SDS011;69200;53.612;-2.416;2024-03-02T06:34:07;267.60;;;148.50;;
79706;SDS011;69200;53.612;-2.416;2024-03-02T06:36:33;272.92;;;150.43;;
79706;SDS011;69200;53.612;-2.416;2024-03-02T06:38:58;274.17;;;150.27;;
79706;SDS011;69200;53.612;-2.416;2024-03-02T06:41:24;276.53;;;151.90;;
79706;SDS011;69200;53.612;-2.416;2024-03-02T06:43:49;277.38;;;150.65;;
79706;SDS011;69200;53.612;-2.416;2024-03-02T06:46:14;282.87;;;151.80;;
79706;SDS011;69200;53.612;-2.416;2024-03-02T06:48:40;271.63;;;151.93;;
79706;SDS011;69200;53.612;-2.416;2024-03-02T06:51:05;233.93;;;141.65;;
79706;SDS011;69200;53.612;-2.416;2024-03-02T06:53:31;467.77;;;315.03;;
79706;SDS011;69200;53.612;-2.416;2024-03-02T06:55:59;475.77;;;325.58;;
79706;SDS011;69200;53.612;-2.416;2024-03-02T06:58:25;473.88;;;323.25;;
79706;SDS011;69200;53.612;-2.416;2024-03-02T07:00:50;460.25;;;298.55;;
79706;SDS011;69200;53.612;-2.416;2024-03-02T07:03:16;472.77;;;319.67;;
79706;SDS011;69200;53.612;-2.416;2024-03-02T07:05:41;466.40;;;305.43;;
79706;SDS011;69200;53.612;-2.416;2024-03-02T07:08:06;467.98;;;307.25;;
79706;SDS011;69200;53.612;-2.416;2024-03-02T07:10:32;460.70;;;295.37;;
79706;SDS011;69200;53.612;-2.416;2024-03-02T07:12:57;459.23;;;292.50;;
79706;SDS011;69200;53.612;-2.416;2024-03-02T07:15:22;458.35;;;291.50;;
79706;SDS011;69200;53.612;-2.416;2024-03-02T07:17:53;458.33;;;317.67;;
79706;SDS011;69200;53.612;-2.416;2024-03-02T07:20:19;108.68;;;64.97;;
79706;SDS011;69200;53.612;-2.416;2024-03-02T07:22:44;137.33;;;81.50;;
79706;SDS011;69200;53.612;-2.416;2024-03-02T07:25:10;18.40;;;11.10;;
79706;SDS011;69200;53.612;-2.416;2024-03-02T07:27:36;88.20;;;58.25;;
79706;SDS011;69200;53.612;-2.416;2024-03-02T07:30:02;163.90;;;98.50;;
79706;SDS011;69200;53.612;-2.416;2024-03-02T07:32:27;190.27;;;121.85;;
79706;SDS011;69200;53.612;-2.416;2024-03-02T07:34:52;37.77;;;29.70;;
79706;SDS011;69200;53.612;-2.416;2024-03-02T07:37:18;8.27;;;5.00;;
79706;SDS011;69200;53.612;-2.416;2024-03-02T07:39:44;8.45;;;3.05;;
79706;SDS011;69200;53.612;-2.416;2024-03-02T07:42:09;8.02;;;2.30;;
79706;SDS011;69200;53.612;-2.416;2024-03-02T07:44:34;6.57;;;2.63;;
79706;SDS011;69200;53.612;-2.416;2024-03-02T07:47:00;5.88;;;2.17;;
79706;SDS011;69200;53.612;-2.416;2024-03-02T07:49:25;11.75;;;3.00;;
79706;SDS011;69200;53.612;-2.416;2024-03-02T07:51:50;10.17;;;3.70;;
79706;SDS011;69200;53.612;-2.416;2024-03-02T07:54:16;9.20;;;2.53;;
79706;SDS011;69200;53.612;-2.416;2024-03-02T07:56:41;9.87;;;3.83;;
79706;SDS011;69200;53.612;-2.416;2024-03-02T07:59:06;6.93;;;2.60;;
79706;SDS011;69200;53.612;-2.416;2024-03-02T08:01:32;8.55;;;2.50;;
79706;SDS011;69200;53.612;-2.416;2024-03-02T08:03:58;10.75;;;4.50;;
79706;SDS011;69200;53.612;-2.416;2024-03-02T08:06:26;3.92;;;1.30;;
79706;SDS011;69200;53.612;-2.416;2024-03-02T08:08:55;6.72;;;2.38;;
79706;SDS011;69200;53.612;-2.416;2024-03-02T08:11:20;14.77;;;3.65;;
79706;SDS011;69200;53.612;-2.416;2024-03-02T08:13:46;6.10;;;2.63;;
79706;SDS011;69200;53.612;-2.416;2024-03-02T08:16:11;7.00;;;2.60;;
79706;SDS011;69200;53.612;-2.416;2024-03-02T08:18:36;6.40;;;1.90;;
79706;SDS011;69200;53.612;-2.416;2024-03-02T08:21:02;5.93;;;1.97;;
79706;SDS011;69200;53.612;-2.416;2024-03-02T08:23:27;4.93;;;1.83;;
79706;SDS011;69200;53.612;-2.416;2024-03-02T08:25:52;7.87;;;2.77;;
79706;SDS011;69200;53.612;-2.416;2024-03-02T08:28:18;5.25;;;2.08;;
79706;SDS011;69200;53.612;-2.416;2024-03-02T08:30:43;7.83;;;3.07;;
79706;SDS011;69200;53.612;-2.416;2024-03-02T08:33:08;7.27;;;2.47;;
79706;SDS011;69200;53.612;-2.416;2024-03-02T08:35:33;8.37;;;2.47;;
79706;SDS011;69200;53.612;-2.416;2024-03-02T08:38:02;5.28;;;2.25;;
79706;SDS011;69200;53.612;-2.416;2024-03-02T08:40:27;7.93;;;2.05;;
79706;SDS011;69200;53.612;-2.416;2024-03-02T08:42:53;8.55;;;2.78;;
79706;SDS011;69200;53.612;-2.416;2024-03-02T08:45:18;5.73;;;2.30;;
79706;SDS011;69200;53.612;-2.416;2024-03-02T08:47:45;9.20;;;3.58;;
79706;SDS011;69200;53.612;-2.416;2024-03-02T08:50:10;9.57;;;3.43;;
79706;SDS011;69200;53.612;-2.416;2024-03-02T08:52:35;9.03;;;3.93;;
79706;SDS011;69200;53.612;-2.416;2024-03-02T08:55:01;11.90;;;4.03;;
79706;SDS011;69200;53.612;-2.416;2024-03-02T08:57:26;14.07;;;3.83;;
79706;SDS011;69200;53.612;-2.416;2024-03-02T08:59:51;14.37;;;3.37;;
79706;SDS011;69200;53.612;-2.416;2024-03-02T09:02:17;11.70;;;4.07;;
79706;SDS011;69200;53.612;-2.416;2024-03-02T09:04:42;8.65;;;2.95;;
79706;SDS011;69200;53.612;-2.416;2024-03-02T09:07:07;7.43;;;2.90;;
79706;SDS011;69200;53.612;-2.416;2024-03-02T09:09:33;8.27;;;3.13;;
79706;SDS011;69200;53.612;-2.416;2024-03-02T09:11:58;11.13;;;3.33;;
79706;SDS011;69200;53.612;-2.416;2024-03-02T09:14:23;9.67;;;3.40;;
79706;SDS011;69200;53.612;-2.416;2024-03-02T09:16:49;10.90;;;3.33;;
79706;SDS011;69200;53.612;-2.416;2024-03-02T09:19:14;8.70;;;3.10;;
79706;SDS011;69200;53.612;-2.416;2024-03-02T09:21:39;6.33;;;1.97;;
79706;SDS011;69200;53.612;-2.416;2024-03-02T09:24:04;8.33;;;3.00;;
79706;SDS011;69200;53.612;-2.416;2024-03-02T09:26:31;6.53;;;2.53;;
79706;SDS011;69200;53.612;-2.416;2024-03-02T09:28:56;5.77;;;1.90;;
79706;SDS011;69200;53.612;-2.416;2024-03-02T09:31:22;6.93;;;2.60;;
79706;SDS011;69200;53.612;-2.416;2024-03-02T09:33:47;4.60;;;1.90;;
79706;SDS011;69200;53.612;-2.416;2024-03-02T09:36:18;9.40;;;2.93;;
79706;SDS011;69200;53.612;-2.416;2024-03-02T09:38:44;6.03;;;2.08;;
79706;SDS011;69200;53.612;-2.416;2024-03-02T09:41:09;6.60;;;2.50;;
79706;SDS011;69200;53.612;-2.416;2024-03-02T09:43:35;5.38;;;2.40;;
79706;SDS011;69200;53.612;-2.416;2024-03-02T09:46:00;9.03;;;2.67;;
79706;SDS011;69200;53.612;-2.416;2024-03-02T09:48:25;6.68;;;1.80;;
79706;SDS011;69200;53.612;-2.416;2024-03-02T09:50:51;5.97;;;2.40;;
79706;SDS011;69200;53.612;-2.416;2024-03-02T09:53:16;8.52;;;2.10;;
79706;SDS011;69200;53.612;-2.416;2024-03-02T09:55:45;5.50;;;1.85;;
79706;SDS011;69200;53.612;-2.416;2024-03-02T09:58:11;4.25;;;1.33;;
79706;SDS011;69200;53.612;-2.416;2024-03-02T10:00:37;4.50;;;1.80;;
79706;SDS011;69200;53.612;-2.416;2024-03-02T10:03:02;5.78;;;2.08;;
79706;SDS011;69200;53.612;-2.416;2024-03-02T10:05:29;5.45;;;1.80;;
79706;SDS011;69200;53.612;-2.416;2024-03-02T10:07:59;3.23;;;1.30;;
79706;SDS011;69200;53.612;-2.416;2024-03-02T10:10:26;5.28;;;1.73;;
79706;SDS011;69200;53.612;-2.416;2024-03-02T10:13:05;2.60;;;0.93;;
79706;SDS011;69200;53.612;-2.416;2024-03-02T10:15:30;6.10;;;1.83;;
79706;SDS011;69200;53.612;-2.416;2024-03-02T10:17:56;5.23;;;2.00;;
79706;SDS011;69200;53.612;-2.416;2024-03-02T10:20:23;7.93;;;2.50;;
79706;SDS011;69200;53.612;-2.416;2024-03-02T10:22:49;6.60;;;2.30;;
79706;SDS011;69200;53.612;-2.416;2024-03-02T10:25:33;8.60;;;3.13;;
79706;SDS011;69200;53.612;-2.416;2024-03-02T10:27:58;7.97;;;2.55;;
79706;SDS011;69200;53.612;-2.416;2024-03-02T10:30:27;6.53;;;2.58;;
79706;SDS011;69200;53.612;-2.416;2024-03-02T10:32:56;9.50;;;3.50;;
79706;SDS011;69200;53.612;-2.416;2024-03-02T10:35:22;6.32;;;2.80;;
79706;SDS011;69200;53.612;-2.416;2024-03-02T10:37:48;7.00;;;2.83;;
79706;SDS011;69200;53.612;-2.416;2024-03-02T10:40:13;8.15;;;2.88;;
79706;SDS011;69200;53.612;-2.416;2024-03-02T10:42:39;7.50;;;2.95;;
79706;SDS011;69200;53.612;-2.416;2024-03-02T10:45:06;6.57;;;2.67;;
79706;SDS011;69200;53.612;-2.416;2024-03-02T10:47:33;6.97;;;2.85;;
79706;SDS011;69200;53.612;-2.416;2024-03-02T10:49:59;10.43;;;3.73;;
79706;SDS011;69200;53.612;-2.416;2024-03-02T10:52:24;8.38;;;2.90;;
79706;SDS011;69200;53.612;-2.416;2024-03-02T10:54:50;8.73;;;2.60;;
79706;SDS011;69200;53.612;-2.416;2024-03-02T10:57:15;6.82;;;2.30;;
79706;SDS011;69200;53.612;-2.416;2024-03-02T10:59:50;10.90;;;2.95;;
79706;SDS011;69200;53.612;-2.416;2024-03-02T11:02:16;8.30;;;2.70;;
79706;SDS011;69200;53.612;-2.416;2024-03-02T11:04:44;10.20;;;3.13;;
79706;SDS011;69200;53.612;-2.416;2024-03-02T11:07:20;12.10;;;3.25;;
79706;SDS011;69200;53.612;-2.416;2024-03-02T11:09:54;10.13;;;3.00;;
79706;SDS011;69200;53.612;-2.416;2024-03-02T11:12:22;8.60;;;3.10;;
79706;SDS011;69200;53.612;-2.416;2024-03-02T11:14:48;6.05;;;2.63;;
79706;SDS011;69200;53.612;-2.416;2024-03-02T11:17:14;6.32;;;2.75;;
79706;SDS011;69200;53.612;-2.416;2024-03-02T11:19:40;7.60;;;3.47;;
79706;SDS011;69200;53.612;-2.416;2024-03-02T11:22:06;9.60;;;2.90;;
79706;SDS011;69200;53.612;-2.416;2024-03-02T11:24:32;7.93;;;3.13;;
79706;SDS011;69200;53.612;-2.416;2024-03-02T11:27:01;7.03;;;2.75;;
79706;SDS011;69200;53.612;-2.416;2024-03-02T11:32:02;7.30;;;2.90;;
79706;SDS011;69200;53.612;-2.416;2024-03-02T11:34:28;20.27;;;3.75;;
79706;SDS011;69200;53.612;-2.416;2024-03-02T11:36:54;6.95;;;2.95;;
79706;SDS011;69200;53.612;-2.416;2024-03-02T11:39:19;10.48;;;3.42;;
79706;SDS011;69200;53.612;-2.416;2024-03-02T11:41:45;10.27;;;3.08;;
79706;SDS011;69200;53.612;-2.416;2024-03-02T11:44:10;13.15;;;3.88;;
79706;SDS011;69200;53.612;-2.416;2024-03-02T11:46:38;8.45;;;2.95;;
79706;SDS011;69200;53.612;-2.416;2024-03-02T11:49:04;10.07;;;3.22;;
79706;SDS011;69200;53.612;-2.416;2024-03-02T11:51:29;9.33;;;2.73;;
79706;SDS011;69200;53.612;-2.416;2024-03-02T11:53:56;9.57;;;3.05;;
79706;SDS011;69200;53.612;-2.416;2024-03-02T11:56:23;7.75;;;2.95;;
79706;SDS011;69200;53.612;-2.416;2024-03-02T11:58:49;7.50;;;2.88;;
79706;SDS011;69200;53.612;-2.416;2024-03-02T12:01:17;5.55;;;2.92;;
79706;SDS011;69200;53.612;-2.416;2024-03-02T12:03:42;8.57;;;3.58;;
79706;SDS011;69200;53.612;-2.416;2024-03-02T12:06:08;8.50;;;3.37;;
79706;SDS011;69200;53.612;-2.416;2024-03-02T12:08:33;6.70;;;2.63;;
79706;SDS011;69200;53.612;-2.416;2024-03-02T12:10:59;10.20;;;3.45;;
79706;SDS011;69200;53.612;-2.416;2024-03-02T12:13:25;8.27;;;3.35;;
79706;SDS011;69200;53.612;-2.416;2024-03-02T12:15:52;7.53;;;2.90;;
79706;SDS011;69200;53.612;-2.416;2024-03-02T12:18:18;9.55;;;2.88;;
79706;SDS011;69200;53.612;-2.416;2024-03-02T12:20:43;7.00;;;2.85;;
79706;SDS011;69200;53.612;-2.416;2024-03-02T12:23:08;7.73;;;2.10;;
79706;SDS011;69200;53.612;-2.416;2024-03-02T12:25:34;6.30;;;2.50;;
79706;SDS011;69200;53.612;-2.416;2024-03-02T12:28:00;8.00;;;3.22;;
79706;SDS011;69200;53.612;-2.416;2024-03-02T12:30:26;3.83;;;1.45;;
79706;SDS011;69200;53.612;-2.416;2024-03-02T12:32:51;12.65;;;4.50;;
79706;SDS011;69200;53.612;-2.416;2024-03-02T12:35:17;3.83;;;1.53;;
79706;SDS011;69200;53.612;-2.416;2024-03-02T12:37:46;7.45;;;2.28;;
79706;SDS011;69200;53.612;-2.416;2024-03-02T12:40:12;4.85;;;2.38;;
79706;SDS011;69200;53.612;-2.416;2024-03-02T12:42:38;4.32;;;1.90;;
79706;SDS011;69200;53.612;-2.416;2024-03-02T12:45:04;11.02;;;5.15;;
79706;SDS011;69200;53.612;-2.416;2024-03-02T12:47:29;5.30;;;2.55;;
79706;SDS011;69200;53.612;-2.416;2024-03-02T12:49:54;5.10;;;2.13;;
79706;SDS011;69200;53.612;-2.416;2024-03-02T12:52:21;3.95;;;1.73;;
79706;SDS011;69200;53.612;-2.416;2024-03-02T12:54:46;6.45;;;1.40;;
79706;SDS011;69200;53.612;-2.416;2024-03-02T12:57:16;5.50;;;2.40;;
79706;SDS011;69200;53.612;-2.416;2024-03-02T12:59:44;5.07;;;1.42;;
79706;SDS011;69200;53.612;-2.416;2024-03-02T13:02:16;3.38;;;1.42;;
79706;SDS011;69200;53.612;-2.416;2024-03-02T13:04:41;4.30;;;1.40;;
79706;SDS011;69200;53.612;-2.416;2024-03-02T13:07:06;4.87;;;1.77;;
79706;SDS011;69200;53.612;-2.416;2024-03-02T13:09:32;3.10;;;1.20;;
79706;SDS011;69200;53.612;-2.416;2024-03-02T13:11:58;3.55;;;1.58;;
79706;SDS011;69200;53.612;-2.416;2024-03-02T13:14:25;2.97;;;1.08;;
79706;SDS011;69200;53.612;-2.416;2024-03-02T13:16:51;5.38;;;1.80;;
79706;SDS011;69200;53.612;-2.416;2024-03-02T13:19:17;6.78;;;1.70;;
79706;SDS011;69200;53.612;-2.416;2024-03-02T13:21:44;4.05;;;1.30;;
79706;SDS011;69200;53.612;-2.416;2024-03-02T13:24:09;5.27;;;1.97;;
79706;SDS011;69200;53.612;-2.416;2024-03-02T13:26:34;5.07;;;1.83;;
79706;SDS011;69200;53.612;-2.416;2024-03-02T13:28:59;2.83;;;1.10;;
79706;SDS011;69200;53.612;-2.416;2024-03-02T13:31:25;4.88;;;1.50;;
79706;SDS011;69200;53.612;-2.416;2024-03-02T13:33:50;4.07;;;1.17;;
79706;SDS011;69200;53.612;-2.416;2024-03-02T13:36:15;5.00;;;1.50;;
79706;SDS011;69200;53.612;-2.416;2024-03-02T13:38:40;1.97;;;1.00;;
79706;SDS011;69200;53.612;-2.416;2024-03-02T13:41:06;2.97;;;1.03;;
79706;SDS011;69200;53.612;-2.416;2024-03-02T13:43:31;5.13;;;1.53;;
79706;SDS011;69200;53.612;-2.416;2024-03-02T13:45:57;5.15;;;1.10;;
79706;SDS011;69200;53.612;-2.416;2024-03-02T13:48:23;4.47;;;1.00;;
79706;SDS011;69200;53.612;-2.416;2024-03-02T13:50:50;3.55;;;1.40;;
79706;SDS011;69200;53.612;-2.416;2024-03-02T13:53:16;4.35;;;1.70;;
79706;SDS011;69200;53.612;-2.416;2024-03-02T13:55:41;3.87;;;1.60;;
79706;SDS011;69200;53.612;-2.416;2024-03-02T13:58:07;4.50;;;1.65;;
79706;SDS011;69200;53.612;-2.416;2024-03-02T14:00:32;3.78;;;1.30;;
79706;SDS011;69200;53.612;-2.416;2024-03-02T14:02:57;4.27;;;1.50;;
79706;SDS011;69200;53.612;-2.416;2024-03-02T14:05:23;5.85;;;1.52;;
79706;SDS011;69200;53.612;-2.416;2024-03-02T14:07:48;5.10;;;2.20;;
79706;SDS011;69200;53.612;-2.416;2024-03-02T14:10:13;5.40;;;1.97;;
79706;SDS011;69200;53.612;-2.416;2024-03-02T14:12:40;4.15;;;1.63;;
79706;SDS011;69200;53.612;-2.416;2024-03-02T14:15:06;4.00;;;1.58;;
79706;SDS011;69200;53.612;-2.416;2024-03-02T14:17:33;4.80;;;1.40;;